createdAt,value
2018-12-26T00:00:46.962Z,6.83
2018-12-26T00:03:15.295Z,6.81
2018-12-26T00:05:43.736Z,6.83
2018-12-26T00:08:13.568Z,6.84
2018-12-26T00:10:41.271Z,6.82
2018-12-26T00:13:10.123Z,6.80
2018-12-26T00:15:38.470Z,6.81
2018-12-26T00:18:06.950Z,6.85
2018-12-26T00:20:35.569Z,6.89
2018-12-26T00:23:03.979Z,6.89
2018-12-26T00:25:32.315Z,6.89
2018-12-26T00:28:00.644Z,6.91
2018-12-26T00:30:29.081Z,6.92
2018-12-26T00:32:57.582Z,6.91
2018-12-26T00:35:25.907Z,6.95
2018-12-26T00:37:54.257Z,6.91
2018-12-26T00:40:22.579Z,6.87
2018-12-26T00:42:51.049Z,6.85
2018-12-26T00:45:19.627Z,6.90
2018-12-26T00:47:47.960Z,6.90
2018-12-26T00:50:16.281Z,6.95
2018-12-26T00:52:44.628Z,6.96
2018-12-26T00:55:13.063Z,7.01
2018-12-26T00:57:41.636Z,7.02
2018-12-26T01:00:09.954Z,7.02
2018-12-26T01:02:38.278Z,7.02
2018-12-26T01:05:06.632Z,7.06
2018-12-26T01:07:34.946Z,7.08
2018-12-26T01:10:04.065Z,7.09
2018-12-26T01:12:32.375Z,7.09
2018-12-26T01:15:00.697Z,7.11
2018-12-26T01:17:29.022Z,7.14
2018-12-26T01:19:57.365Z,7.15
2018-12-26T01:22:25.680Z,7.14
2018-12-26T01:24:54.005Z,7.16
2018-12-26T01:27:23.267Z,7.15
2018-12-26T01:29:51.583Z,7.14
2018-12-26T01:32:19.913Z,7.15
2018-12-26T01:34:48.249Z,7.14
2018-12-26T01:37:16.585Z,7.11
2018-12-26T01:39:44.912Z,7.09
2018-12-26T01:42:13.228Z,7.09
2018-12-26T01:44:41.541Z,7.10
2018-12-26T01:47:09.865Z,7.11
2018-12-26T01:49:38.189Z,7.11
2018-12-26T01:52:06.739Z,7.08
2018-12-26T01:54:34.845Z,7.10
2018-12-26T01:57:03.180Z,7.10
2018-12-26T01:59:31.506Z,7.10
2018-12-26T02:01:59.857Z,7.07
2018-12-26T02:04:28.175Z,7.07
2018-12-26T02:06:56.518Z,7.08
2018-12-26T02:09:24.826Z,7.06
2018-12-26T02:11:53.161Z,7.08
2018-12-26T02:14:21.488Z,7.06
2018-12-26T02:16:49.815Z,7.07
2018-12-26T02:19:19.016Z,7.09
2018-12-26T02:21:47.344Z,7.09
2018-12-26T02:24:15.672Z,7.08
2018-12-26T02:26:44.004Z,7.07
2018-12-26T02:29:12.331Z,7.10
2018-12-26T02:31:40.654Z,7.08
2018-12-26T02:34:08.973Z,7.11
2018-12-26T02:36:37.599Z,7.11
2018-12-26T02:39:05.922Z,7.13
2018-12-26T02:41:34.236Z,7.08
2018-12-26T02:44:02.568Z,7.08
2018-12-26T02:46:31.114Z,7.09
2018-12-26T02:48:59.226Z,7.08
2018-12-26T02:51:27.544Z,7.11
2018-12-26T02:53:55.876Z,7.09
2018-12-26T02:56:24.204Z,7.07
2018-12-26T02:58:52.516Z,7.08
2018-12-26T03:01:20.839Z,7.08
2018-12-26T03:03:49.172Z,7.04
2018-12-26T03:06:17.492Z,7.05
2018-12-26T03:08:45.815Z,7.06
2018-12-26T03:11:14.143Z,7.04
2018-12-26T03:13:42.469Z,7.05
2018-12-26T03:16:11.030Z,7.05
2018-12-26T03:18:39.128Z,7.06
2018-12-26T03:21:07.438Z,7.07
2018-12-26T03:23:35.771Z,7.05
2018-12-26T03:26:04.105Z,7.05
2018-12-26T03:28:32.416Z,7.05
2018-12-26T03:31:00.749Z,7.06
2018-12-26T03:33:29.074Z,7.07
2018-12-26T03:35:57.404Z,7.05
2018-12-26T03:38:25.744Z,7.07
2018-12-26T03:40:54.055Z,7.05
2018-12-26T03:43:22.375Z,7.04
2018-12-26T03:45:50.688Z,7.03
2018-12-26T03:48:19.012Z,7.06
2018-12-26T03:50:47.336Z,7.05
2018-12-26T03:53:15.668Z,7.05
2018-12-26T03:55:44.006Z,7.03
2018-12-26T03:58:12.347Z,7.05
2018-12-26T04:00:40.661Z,7.04
2018-12-26T04:03:08.989Z,7.03
2018-12-26T04:05:37.313Z,7.03
2018-12-26T04:08:05.655Z,7.03
2018-12-26T04:10:33.974Z,7.02
2018-12-26T04:13:02.292Z,7.02
2018-12-26T04:15:30.604Z,7.02
2018-12-26T04:17:58.936Z,7.04
2018-12-26T04:20:27.267Z,7.04
2018-12-26T04:22:55.579Z,7.02
2018-12-26T04:25:23.912Z,7.03
2018-12-26T04:27:52.250Z,7.04
2018-12-26T04:30:20.561Z,7.05
2018-12-26T04:32:49.187Z,7.06
2018-12-26T04:35:17.518Z,7.04
2018-12-26T04:37:46.168Z,7.03
2018-12-26T04:40:14.493Z,7.01
2018-12-26T04:42:43.242Z,7.02
2018-12-26T04:45:11.568Z,7.03
2018-12-26T04:47:39.886Z,7.02
2018-12-26T04:50:08.210Z,7.00
2018-12-26T04:52:36.791Z,7.00
2018-12-26T04:55:05.010Z,7.00
2018-12-26T04:57:33.322Z,7.02
2018-12-26T05:00:01.674Z,7.00
2018-12-26T05:02:29.991Z,7.01
2018-12-26T05:04:58.317Z,6.99
2018-12-26T05:07:26.641Z,6.99
2018-12-26T05:09:54.956Z,6.97
2018-12-26T05:12:23.283Z,6.99
2018-12-26T05:14:51.599Z,6.96
2018-12-26T05:17:19.922Z,6.96
2018-12-26T05:19:48.242Z,6.97
2018-12-26T05:22:16.574Z,6.98
2018-12-26T05:24:44.906Z,6.98
2018-12-26T05:27:13.226Z,6.97
2018-12-26T05:29:41.549Z,6.96
2018-12-26T05:32:09.890Z,6.96
2018-12-26T05:34:38.222Z,6.96
2018-12-26T05:37:06.536Z,6.96
2018-12-26T05:39:34.862Z,6.99
2018-12-26T05:42:03.185Z,7.00
2018-12-26T05:44:31.511Z,6.98
2018-12-26T05:46:59.838Z,7.01
2018-12-26T05:49:28.152Z,7.01
2018-12-26T05:51:56.481Z,7.02
2018-12-26T05:54:24.824Z,7.03
2018-12-26T05:56:53.152Z,7.04
2018-12-26T05:59:21.482Z,7.03
2018-12-26T06:01:49.805Z,7.04
2018-12-26T06:04:18.128Z,7.06
2018-12-26T06:06:46.467Z,7.06
2018-12-26T06:09:14.786Z,7.05
2018-12-26T06:11:43.129Z,7.07
2018-12-26T06:14:11.491Z,7.04
2018-12-26T06:16:39.814Z,7.02
2018-12-26T06:19:08.138Z,7.00
2018-12-26T06:21:36.472Z,7.01
2018-12-26T06:24:04.848Z,6.97
2018-12-26T06:26:33.199Z,6.96
2018-12-26T06:29:01.476Z,6.97
2018-12-26T06:31:30.226Z,6.99
2018-12-26T06:33:58.551Z,6.99
2018-12-26T06:36:26.885Z,6.98
2018-12-26T06:38:55.210Z,6.99
2018-12-26T06:41:23.527Z,6.97
2018-12-26T06:43:51.855Z,6.97
2018-12-26T06:46:20.236Z,6.99
2018-12-26T06:48:48.570Z,6.98
2018-12-26T06:51:16.888Z,6.96
2018-12-26T06:53:45.214Z,6.98
2018-12-26T06:56:13.539Z,6.97
2018-12-26T06:58:41.864Z,6.98
2018-12-26T07:01:10.195Z,6.96
2018-12-26T07:03:39.091Z,6.95
2018-12-26T07:06:07.407Z,6.93
2018-12-26T07:08:35.713Z,6.92
2018-12-26T07:11:04.125Z,6.92
2018-12-26T07:13:32.449Z,6.92
2018-12-26T07:16:00.768Z,6.92
2018-12-26T07:18:29.085Z,6.90
2018-12-26T07:20:57.408Z,6.90
2018-12-26T07:23:25.726Z,6.90
2018-12-26T07:25:54.046Z,6.87
2018-12-26T07:28:22.367Z,6.87
2018-12-26T07:30:50.722Z,6.86
2018-12-26T07:33:19.046Z,6.87
2018-12-26T07:35:47.384Z,6.88
2018-12-26T07:38:15.702Z,6.89
2018-12-26T07:40:44.034Z,6.90
2018-12-26T07:43:12.370Z,6.90
2018-12-26T07:45:40.706Z,6.91
2018-12-26T07:48:09.055Z,6.95
2018-12-26T07:50:37.377Z,6.92
2018-12-26T07:53:05.711Z,6.91
2018-12-26T07:55:34.255Z,6.89
2018-12-26T07:58:02.390Z,6.84
2018-12-26T08:00:31.380Z,6.81
2018-12-26T08:02:59.700Z,6.81
2018-12-26T08:05:28.053Z,6.78
2018-12-26T08:07:56.383Z,6.79
2018-12-26T08:10:24.701Z,6.76
2018-12-26T08:12:53.554Z,6.77
2018-12-26T08:15:21.667Z,6.75
2018-12-26T08:17:49.999Z,6.72
2018-12-26T08:20:18.678Z,6.69
2018-12-26T08:22:47.304Z,6.66
2018-12-26T08:25:15.619Z,6.68
2018-12-26T08:27:43.958Z,6.68
2018-12-26T08:30:12.301Z,6.69
2018-12-26T08:32:40.875Z,6.68
2018-12-26T08:35:09.365Z,6.72
2018-12-26T08:37:37.654Z,6.68
2018-12-26T08:40:05.992Z,6.70
2018-12-26T08:42:34.313Z,6.69
2018-12-26T08:45:03.659Z,6.69
2018-12-26T08:47:32.420Z,6.70
2018-12-26T08:50:02.037Z,6.72
2018-12-26T08:52:30.503Z,6.72
2018-12-26T08:54:59.611Z,6.75
2018-12-26T08:57:27.937Z,6.79
2018-12-26T08:59:56.306Z,6.80
2018-12-26T09:02:25.624Z,6.76
2018-12-26T09:04:53.960Z,6.71
2018-12-26T09:07:22.285Z,6.71
2018-12-26T09:09:50.609Z,6.72
2018-12-26T09:12:18.969Z,6.77
2018-12-26T09:14:47.312Z,6.79
2018-12-26T09:17:15.639Z,6.80
2018-12-26T09:19:44.010Z,6.81
2018-12-26T09:22:12.331Z,6.82
2018-12-26T09:24:40.666Z,6.84
2018-12-26T09:27:08.990Z,6.91
2018-12-26T09:29:53.166Z,6.95
2018-12-26T09:32:21.337Z,6.90
2018-12-26T09:34:49.655Z,6.92
2018-12-26T09:37:17.982Z,6.89
2018-12-26T09:39:46.308Z,6.94
2018-12-26T09:42:14.617Z,6.99
2018-12-26T09:44:42.963Z,7.01
2018-12-26T09:47:11.528Z,6.99
2018-12-26T09:49:39.837Z,7.03
2018-12-26T09:52:08.312Z,7.00
2018-12-26T09:54:36.553Z,6.97
2018-12-26T09:57:04.878Z,6.94
2018-12-26T09:59:33.204Z,6.97
2018-12-26T10:02:01.535Z,7.00
2018-12-26T10:04:29.874Z,7.00
2018-12-26T10:06:58.194Z,6.99
2018-12-26T10:09:26.536Z,6.98
2018-12-26T10:11:56.568Z,6.95
2018-12-26T10:14:24.887Z,6.97
2018-12-26T10:16:53.215Z,6.95
2018-12-26T10:19:21.542Z,6.93
2018-12-26T10:21:49.873Z,6.87
2018-12-26T10:24:18.203Z,6.82
2018-12-26T10:26:47.035Z,6.83
2018-12-26T10:29:15.369Z,6.80
2018-12-26T10:31:43.686Z,6.82
2018-12-26T10:34:12.991Z,6.85
2018-12-26T10:36:41.592Z,6.86
2018-12-26T10:39:09.928Z,6.90
2018-12-26T10:41:38.272Z,6.94
2018-12-26T10:44:06.602Z,6.93
2018-12-26T10:46:34.943Z,6.91
2018-12-26T10:49:03.279Z,6.90
2018-12-26T10:51:31.633Z,6.91
2018-12-26T10:53:59.937Z,6.95
2018-12-26T10:56:28.260Z,6.93
2018-12-26T10:58:56.593Z,6.88
2018-12-26T11:01:26.053Z,6.83
2018-12-26T11:03:55.858Z,6.81
2018-12-26T11:06:24.214Z,6.80
2018-12-26T11:08:52.598Z,6.83
2018-12-26T11:11:21.720Z,6.87
2018-12-26T11:13:50.075Z,6.92
2018-12-26T11:16:18.397Z,6.94
2018-12-26T11:18:46.783Z,6.92
2018-12-26T11:21:15.114Z,6.95
2018-12-26T11:23:44.482Z,6.99
2018-12-26T11:26:12.842Z,7.02
2018-12-26T11:28:41.171Z,7.06
2018-12-26T11:31:09.513Z,7.10
2018-12-26T11:33:37.958Z,7.08
2018-12-26T11:36:06.283Z,7.06
2018-12-26T11:38:34.613Z,7.04
2018-12-26T11:41:05.115Z,7.10
2018-12-26T11:43:31.629Z,7.13
2018-12-26T11:45:59.949Z,7.16
2018-12-26T11:48:28.275Z,7.16
2018-12-26T11:50:56.616Z,7.12
2018-12-26T11:53:24.949Z,7.09
2018-12-26T11:55:53.286Z,7.05
2018-12-26T11:58:21.665Z,7.06
2018-12-26T12:00:49.991Z,7.09
2018-12-26T12:03:18.355Z,7.07
2018-12-26T12:05:46.702Z,7.00
2018-12-26T12:08:15.039Z,6.96
2018-12-26T12:10:43.379Z,6.90
2018-12-26T12:13:11.703Z,6.92
2018-12-26T12:15:40.032Z,6.91
2018-12-26T12:18:08.446Z,6.90
2018-12-26T12:20:36.770Z,6.88
2018-12-26T12:23:05.110Z,6.86
2018-12-26T12:25:33.435Z,6.82
2018-12-26T12:28:01.764Z,6.81
2018-12-26T12:30:30.092Z,6.83
2018-12-26T12:32:58.479Z,6.86
2018-12-26T12:35:26.838Z,6.89
2018-12-26T12:37:55.491Z,6.92
2018-12-26T12:40:23.810Z,6.91
2018-12-26T12:42:52.144Z,6.94
2018-12-26T12:45:20.968Z,6.91
2018-12-26T12:47:49.608Z,6.89
2018-12-26T12:50:17.969Z,6.94
2018-12-26T12:52:46.302Z,6.92
2018-12-26T12:55:14.785Z,6.91
2018-12-26T12:57:43.133Z,6.90
2018-12-26T13:00:12.602Z,6.88
2018-12-26T13:02:40.986Z,6.84
2018-12-26T13:05:09.325Z,6.85
2018-12-26T13:07:37.638Z,6.82
2018-12-26T13:10:05.964Z,6.80
2018-12-26T13:12:34.627Z,6.78
2018-12-26T13:15:02.998Z,6.79
2018-12-26T13:17:31.462Z,6.78
2018-12-26T13:19:59.786Z,6.75
2018-12-26T13:22:28.137Z,6.74
2018-12-26T13:24:56.476Z,6.71
2018-12-26T13:27:24.813Z,6.69
2018-12-26T13:29:53.910Z,6.67
2018-12-26T13:32:21.676Z,6.67
2018-12-26T13:34:50.078Z,6.65
2018-12-26T13:37:18.472Z,6.59
2018-12-26T13:39:47.128Z,6.58
2018-12-26T13:42:15.461Z,6.62
2018-12-26T13:44:43.802Z,6.60
2018-12-26T13:47:12.124Z,6.61
2018-12-26T13:49:40.493Z,6.64
2018-12-26T13:52:08.853Z,6.67
2018-12-26T13:54:37.187Z,6.63
2018-12-26T13:57:05.555Z,6.63
2018-12-26T13:59:33.887Z,6.59
2018-12-26T14:02:02.223Z,6.58
2018-12-26T14:04:30.547Z,6.61
2018-12-26T14:06:58.872Z,6.62
2018-12-26T14:09:27.437Z,6.64
2018-12-26T14:11:55.595Z,6.62
2018-12-26T14:14:23.918Z,6.57
2018-12-26T14:16:52.256Z,6.58
2018-12-26T14:19:20.605Z,6.61
2018-12-26T14:21:48.948Z,6.64
2018-12-26T14:24:17.293Z,6.64
2018-12-26T14:26:45.617Z,6.64
2018-12-26T14:29:13.982Z,6.61
2018-12-26T14:31:42.351Z,6.60
2018-12-26T14:34:11.004Z,6.57
2018-12-26T14:36:39.338Z,6.53
2018-12-26T14:39:08.097Z,6.51
2018-12-26T14:41:36.462Z,6.44
2018-12-26T14:44:04.591Z,6.46
2018-12-26T14:46:33.009Z,6.45
2018-12-26T14:49:01.304Z,6.44
2018-12-26T14:51:29.618Z,6.45
2018-12-26T14:53:58.008Z,6.49
2018-12-26T14:56:26.349Z,6.43
2018-12-26T14:58:54.709Z,6.43
2018-12-26T15:01:23.137Z,6.44
2018-12-26T15:03:52.399Z,6.45
2018-12-26T15:06:20.837Z,6.42
2018-12-26T15:08:49.152Z,6.35
2018-12-26T15:11:17.472Z,6.34
2018-12-26T15:13:45.836Z,6.31
2018-12-26T15:16:14.151Z,6.30
2018-12-26T15:18:42.896Z,6.29
2018-12-26T15:21:11.211Z,6.27
2018-12-26T15:23:39.543Z,6.27
2018-12-26T15:26:07.871Z,6.27
2018-12-26T15:28:36.314Z,6.25
2018-12-26T15:31:04.641Z,6.24
2018-12-26T15:33:33.010Z,6.26
2018-12-26T15:36:01.359Z,6.25
2018-12-26T15:38:29.689Z,6.19
2018-12-26T15:40:58.003Z,6.15
2018-12-26T15:43:26.325Z,6.10
2018-12-26T15:45:54.662Z,6.09
2018-12-26T15:48:23.023Z,6.05
2018-12-26T15:50:51.371Z,6.03
2018-12-26T15:53:19.715Z,6.01
2018-12-26T15:55:48.122Z,6.01
2018-12-26T15:58:16.442Z,5.98
2018-12-26T16:00:44.782Z,5.98
2018-12-26T16:03:13.128Z,5.96
2018-12-26T16:05:41.622Z,5.98
2018-12-26T16:08:09.965Z,5.97
2018-12-26T16:10:38.300Z,5.96
2018-12-26T16:13:06.659Z,5.95
2018-12-26T16:15:34.995Z,5.97
2018-12-26T16:18:03.349Z,5.99
2018-12-26T16:20:31.701Z,6.00
2018-12-26T16:23:00.100Z,6.03
2018-12-26T16:25:28.417Z,6.04
2018-12-26T16:27:56.782Z,6.03
2018-12-26T16:30:26.072Z,6.06
2018-12-26T16:32:54.422Z,6.12
2018-12-26T16:35:22.780Z,6.14
2018-12-26T16:37:51.120Z,6.15
2018-12-26T16:40:19.443Z,6.12
2018-12-26T16:42:47.808Z,6.13
2018-12-26T16:45:16.141Z,6.10
2018-12-26T16:47:44.461Z,6.12
2018-12-26T16:50:13.027Z,6.11
2018-12-26T16:52:41.142Z,6.12
2018-12-26T16:55:10.460Z,6.15
2018-12-26T16:57:38.829Z,6.16
2018-12-26T17:00:07.552Z,6.13
2018-12-26T17:02:36.115Z,6.14
2018-12-26T17:05:04.240Z,6.12
2018-12-26T17:07:32.614Z,6.11
2018-12-26T17:10:00.948Z,6.08
2018-12-26T17:12:29.288Z,6.10
2018-12-26T17:14:57.835Z,6.06
2018-12-26T17:17:26.182Z,6.10
2018-12-26T17:19:54.532Z,6.10
2018-12-26T17:22:22.851Z,6.12
2018-12-26T17:24:51.445Z,6.13
2018-12-26T17:27:19.913Z,6.17
2018-12-26T17:29:48.246Z,6.21
2018-12-26T17:32:16.593Z,6.25
2018-12-26T17:34:44.942Z,6.27
2018-12-26T17:37:13.437Z,6.25
2018-12-26T17:39:41.841Z,6.25
2018-12-26T17:42:10.084Z,6.25
2018-12-26T17:44:38.676Z,6.26
2018-12-26T17:47:07.649Z,6.26
2018-12-26T17:49:35.984Z,6.23
2018-12-26T17:52:05.832Z,6.21
2018-12-26T17:54:32.643Z,6.24
2018-12-26T17:57:00.983Z,6.24
2018-12-26T17:59:29.329Z,6.24
2018-12-26T18:01:57.659Z,6.27
2018-12-26T18:04:26.332Z,6.25
2018-12-26T18:06:55.394Z,6.23
2018-12-26T18:09:23.722Z,6.21
2018-12-26T18:11:52.074Z,6.19
2018-12-26T18:14:20.422Z,6.18
2018-12-26T18:16:48.748Z,6.20
2018-12-26T18:19:17.119Z,6.20
2018-12-26T18:21:45.466Z,6.23
2018-12-26T18:24:13.842Z,6.25
2018-12-26T18:26:42.466Z,6.28
2018-12-26T18:29:12.342Z,6.28
2018-12-26T18:31:40.907Z,6.28
2018-12-26T18:34:09.016Z,6.29
2018-12-26T18:36:37.659Z,6.29
2018-12-26T18:39:05.696Z,6.28
2018-12-26T18:41:34.049Z,6.28
2018-12-26T18:44:02.379Z,6.27
2018-12-26T18:46:30.709Z,6.23
2018-12-26T18:48:59.053Z,6.18
2018-12-26T18:51:27.375Z,6.15
2018-12-26T18:53:55.729Z,6.16
2018-12-26T18:56:24.076Z,6.19
2018-12-26T18:58:52.417Z,6.21
2018-12-26T19:01:20.963Z,6.19
2018-12-26T19:03:49.428Z,6.21
2018-12-26T19:06:17.802Z,6.22
2018-12-26T19:08:46.367Z,6.20
2018-12-26T19:11:16.681Z,6.17
2018-12-26T19:13:45.037Z,6.15
2018-12-26T19:16:13.361Z,6.14
2018-12-26T19:18:41.702Z,6.16
2018-12-26T19:21:10.038Z,6.19
2018-12-26T19:23:38.406Z,6.22
2018-12-26T19:26:06.766Z,6.25
2018-12-26T19:28:35.106Z,6.25
2018-12-26T19:31:03.452Z,6.25
2018-12-26T19:33:32.018Z,6.27
2018-12-26T19:36:00.135Z,6.19
2018-12-26T19:38:28.484Z,6.21
2018-12-26T19:40:57.560Z,6.21
2018-12-26T19:43:25.916Z,6.21
2018-12-26T19:45:54.247Z,6.23
2018-12-26T19:48:22.584Z,6.22
2018-12-26T19:50:52.637Z,6.19
2018-12-26T19:53:19.275Z,6.18
2018-12-26T19:55:48.490Z,6.19
2018-12-26T19:58:16.829Z,6.20
2018-12-26T20:00:45.187Z,6.18
2018-12-26T20:03:13.545Z,6.21
2018-12-26T20:05:41.891Z,6.21
2018-12-26T20:08:10.470Z,6.21
2018-12-26T20:10:38.836Z,6.24
2018-12-26T20:13:07.188Z,6.26
2018-12-26T20:15:35.565Z,6.27
2018-12-26T20:18:04.416Z,6.28
2018-12-26T20:20:33.850Z,6.27
2018-12-26T20:23:02.300Z,6.28
2018-12-26T20:25:30.631Z,6.26
2018-12-26T20:27:58.976Z,6.25
2018-12-26T20:30:27.321Z,6.28
2018-12-26T20:32:55.661Z,6.24
2018-12-26T20:35:24.015Z,6.25
2018-12-26T20:37:52.356Z,6.27
2018-12-26T20:40:21.597Z,6.27
2018-12-26T20:42:49.919Z,6.31
2018-12-26T20:45:18.256Z,6.34
2018-12-26T20:47:46.810Z,6.33
2018-12-26T20:50:15.135Z,6.32
2018-12-26T20:52:43.468Z,6.33
2018-12-26T20:55:11.799Z,6.30
2018-12-26T20:57:40.145Z,6.30
2018-12-26T21:00:08.707Z,6.30
2018-12-26T21:02:36.812Z,6.27
2018-12-26T21:05:05.152Z,6.23
2018-12-26T21:07:33.477Z,6.22
2018-12-26T21:10:01.840Z,6.21
2018-12-26T21:12:32.375Z,6.20
2018-12-26T21:15:00.715Z,6.23
2018-12-26T21:17:29.081Z,6.21
2018-12-26T21:19:57.428Z,6.21
2018-12-26T21:22:25.813Z,6.20
2018-12-26T21:24:54.172Z,6.17
2018-12-26T21:27:22.496Z,6.17
2018-12-26T21:29:50.899Z,6.18
2018-12-26T21:32:20.172Z,6.18
2018-12-26T21:34:48.519Z,6.16
2018-12-26T21:37:16.900Z,6.20
2018-12-26T21:39:45.200Z,6.17
2018-12-26T21:42:13.531Z,6.17
2018-12-26T21:44:41.860Z,6.15
2018-12-26T21:47:10.423Z,6.16
2018-12-26T21:49:39.318Z,6.13
2018-12-26T21:52:07.625Z,6.12
2018-12-26T21:54:35.944Z,6.14
2018-12-26T21:57:05.096Z,6.08
2018-12-26T21:59:33.611Z,6.07
2018-12-26T22:02:01.905Z,6.06
2018-12-26T22:04:30.236Z,6.07
2018-12-26T22:06:58.676Z,6.05
2018-12-26T22:09:27.297Z,6.05
2018-12-26T22:11:55.707Z,6.05
2018-12-26T22:14:24.019Z,6.00
2018-12-26T22:16:52.347Z,6.00
2018-12-26T22:19:21.291Z,6.01
2018-12-26T22:21:50.599Z,6.02
2018-12-26T22:24:18.016Z,6.01
2018-12-26T22:26:47.197Z,5.99
2018-12-26T22:29:15.611Z,5.96
2018-12-26T22:31:43.984Z,5.92
2018-12-26T22:34:12.228Z,5.90
2018-12-26T22:36:40.553Z,5.91
2018-12-26T22:39:08.891Z,5.90
2018-12-26T22:41:37.522Z,5.88
2018-12-26T22:44:05.856Z,5.86
2018-12-26T22:46:34.216Z,5.85
2018-12-26T22:49:02.618Z,5.81
2018-12-26T22:51:30.939Z,5.78
2018-12-26T22:53:59.255Z,5.77
2018-12-26T22:56:28.329Z,5.80
2018-12-26T22:58:56.872Z,5.80
2018-12-26T23:01:25.478Z,5.77
2018-12-26T23:03:53.729Z,5.76
2018-12-26T23:06:22.295Z,5.71
2018-12-26T23:08:50.952Z,5.71
2018-12-26T23:11:19.302Z,5.70
2018-12-26T23:13:47.955Z,5.71
2018-12-26T23:16:16.083Z,5.70
2018-12-26T23:18:44.400Z,5.69
2018-12-26T23:21:12.828Z,5.68
2018-12-26T23:23:41.328Z,5.66
2018-12-26T23:26:09.827Z,5.65
2018-12-26T23:28:38.203Z,5.64
2018-12-26T23:31:06.519Z,5.66
2018-12-26T23:33:36.330Z,5.70
2018-12-26T23:36:04.437Z,5.68
2018-12-26T23:38:32.760Z,5.74
2018-12-26T23:41:01.284Z,5.80
2018-12-26T23:43:29.755Z,5.82
2018-12-26T23:45:58.158Z,5.83
2018-12-26T23:48:26.687Z,5.88
2018-12-26T23:50:56.042Z,5.89
2018-12-26T23:53:24.373Z,5.90
2018-12-26T23:55:52.724Z,5.94
2018-12-26T23:58:22.172Z,5.96
